Ovid, CO

8:34 AM MDT on September 21, 2014 (GMT -0600)
Holyoke Municipal | Change Station
CLOSE
Current Station
Airport
Location: Holyoke AP, Holyoke, CO,
Elevation: 3730 ft
Nearby Weather Stations

Elev 3730 ft 40.57 °N, 102.28 °W | Updated 19 minutes ago

Mostly Cloudy
Mostly Cloudy
59 °F
Feels Like 59 °F
N
0
Wind Variable Wind from North

Today
High -- | Low -- °F
--% Chance of Precip.
Yesterday
High -- | Low -- °F
Precip. -- in
6:36 AM 6:48 PM
Waning Crescent, 6% visible
Pressure 30.39 in
Visibility 10.0 miles
Clouds Scattered Clouds 8000 ft
Dew Point 46 °F
Humidity 63%
Rainfall 0.00 in
Snow Depth 1 in , 0 in , 0 in
UV 1 out of 12
Pollen 5.20 out of 12
Air Quality Not available.
Flu Activity Not available.
METAR KHEQ 211415Z AUTO 00000KT 10SM SCT080 15/08 A3039 RMK AO2

More Conditions Fewer Conditions

Pressure 30.39 in
Visibility 10.0 miles
Clouds Scattered Clouds 8000 ft
Dew Point 46 °F
Humidity 63%
Rainfall 0.00 in
Snow Depth 1 in , 0 in , 0 in
UV 1 out of 12
Pollen 5.20 out of 12
Air Quality Not available.
Flu Activity Not available.
METAR KHEQ 211415Z AUTO 00000KT 10SM SCT080 15/08 A3039 RMK AO2

More Conditions Fewer Conditions

10-Day Weather Forecast

Almanac

Astronomy

Sep. 21, 2014 Rise Set
Actual Time 6:36 AM MDT 6:48 PM MDT
Civil Twilight 6:08 AM MDT 7:15 PM MDT
Nautical Twilight 5:36 AM MDT 7:47 PM MDT
Astronomical Twilight 5:03 AM MDT 8:20 PM MDT
Moon 4:10 AM MDT 5:26 PM MDT
Length of Visible Light 13h 07m
Length of Day
12h 12m
Tomorrow will be 2m 42s shorter.
Waning Crescent, 6% of the Moon is Illuminated
Today
Waning Crescent
Sep 24
New
Oct 1
First Quarter
Oct 8
Full
Oct 15
Last Quarter

Today's Extremes

State Highs State Lows

Community

WunderPhotos

Upload Photos

1,755,158 photos uploaded!

Nearby

Snow Depth

Station Depth Elevation
Berthoud Summit 1 in 11300 ft
Middle Fork Camp 0 in 9000 ft
Dry Lake 0 in 8400 ft
Lynx Pass 0 in 8880 ft
Never Summer 1 in 10280 ft

Earthquake Activity

City Distance Mag. Time & Date
No recent earthquake activity has been reported nearby.
Minimum magnitude displayed is 2.5.

Coastal Water Temperatures

Place Temperature
No Stations Reporting

Nearby Weather Stations